sensor_id;sensor_type;location;lat;lon;timestamp;temperature;humidity
27803;DHT22;15182;48.174;11.562;2023-01-28T00:00:31;5.00;96.80
27803;DHT22;15182;48.174;11.562;2023-01-28T00:03:03;5.00;96.90
27803;DHT22;15182;48.174;11.562;2023-01-28T00:05:35;5.00;96.90
27803;DHT22;15182;48.174;11.562;2023-01-28T00:08:07;5.00;97.00
27803;DHT22;15182;48.174;11.562;2023-01-28T00:10:39;5.00;97.00
27803;DHT22;15182;48.174;11.562;2023-01-28T00:13:12;5.00;97.00
27803;DHT22;15182;48.174;11.562;2023-01-28T00:15:43;5.00;97.10
27803;DHT22;15182;48.174;11.562;2023-01-28T00:18:14;5.00;97.00
27803;DHT22;15182;48.174;11.562;2023-01-28T00:20:55;4.90;96.90
27803;DHT22;15182;48.174;11.562;2023-01-28T00:23:26;4.90;96.90
27803;DHT22;15182;48.174;11.562;2023-01-28T00:25:59;4.90;97.00
27803;DHT22;15182;48.174;11.562;2023-01-28T00:28:31;4.90;97.00
27803;DHT22;15182;48.174;11.562;2023-01-28T00:31:09;4.90;97.00
27803;DHT22;15182;48.174;11.562;2023-01-28T00:33:41;4.90;97.00
27803;DHT22;15182;48.174;11.562;2023-01-28T00:36:15;4.90;97.00
27803;DHT22;15182;48.174;11.562;2023-01-28T00:38:50;4.90;97.10
27803;DHT22;15182;48.174;11.562;2023-01-28T00:41:23;4.90;97.10
27803;DHT22;15182;48.174;11.562;2023-01-28T00:43:56;4.90;97.10
27803;DHT22;15182;48.174;11.562;2023-01-28T00:46:27;4.90;97.10
27803;DHT22;15182;48.174;11.562;2023-01-28T00:48:59;4.90;97.10
27803;DHT22;15182;48.174;11.562;2023-01-28T00:51:32;4.90;97.00
27803;DHT22;15182;48.174;11.562;2023-01-28T00:54:04;4.90;97.00
27803;DHT22;15182;48.174;11.562;2023-01-28T00:56:35;4.90;96.90
27803;DHT22;15182;48.174;11.562;2023-01-28T00:59:07;4.80;96.90
27803;DHT22;15182;48.174;11.562;2023-01-28T01:01:38;4.80;97.00
27803;DHT22;15182;48.174;11.562;2023-01-28T01:04:09;4.80;97.00
27803;DHT22;15182;48.174;11.562;2023-01-28T01:06:42;4.80;97.00
27803;DHT22;15182;48.174;11.562;2023-01-28T01:09:13;4.80;97.00
27803;DHT22;15182;48.174;11.562;2023-01-28T01:11:46;4.80;97.00
27803;DHT22;15182;48.174;11.562;2023-01-28T01:14:18;4.80;97.00
27803;DHT22;15182;48.174;11.562;2023-01-28T01:16:51;4.80;97.00
27803;DHT22;15182;48.174;11.562;2023-01-28T01:19:22;4.80;97.00
27803;DHT22;15182;48.174;11.562;2023-01-28T01:21:57;4.80;97.00
27803;DHT22;15182;48.174;11.562;2023-01-28T01:24:28;4.80;97.00
27803;DHT22;15182;48.174;11.562;2023-01-28T01:27:00;4.80;97.00
27803;DHT22;15182;48.174;11.562;2023-01-28T01:29:32;4.80;97.00
27803;DHT22;15182;48.174;11.562;2023-01-28T01:32:04;4.70;97.00
27803;DHT22;15182;48.174;11.562;2023-01-28T01:34:35;4.70;97.00
27803;DHT22;15182;48.174;11.562;2023-01-28T01:37:09;4.70;96.90
27803;DHT22;15182;48.174;11.562;2023-01-28T01:39:40;4.70;96.90
27803;DHT22;15182;48.174;11.562;2023-01-28T01:42:14;4.70;96.90
27803;DHT22;15182;48.174;11.562;2023-01-28T01:45:03;4.70;96.90
27803;DHT22;15182;48.174;11.562;2023-01-28T01:47:41;4.70;97.00
27803;DHT22;15182;48.174;11.562;2023-01-28T01:50:21;4.70;97.00
27803;DHT22;15182;48.174;11.562;2023-01-28T01:53:03;4.70;97.00
27803;DHT22;15182;48.174;11.562;2023-01-28T01:55:40;4.70;97.00
27803;DHT22;15182;48.174;11.562;2023-01-28T01:58:16;4.70;97.00
27803;DHT22;15182;48.174;11.562;2023-01-28T02:00:52;4.70;97.00
27803;DHT22;15182;48.174;11.562;2023-01-28T02:03:28;4.70;97.00
27803;DHT22;15182;48.174;11.562;2023-01-28T02:06:05;4.70;97.10
27803;DHT22;15182;48.174;11.562;2023-01-28T02:08:38;4.70;97.10
27803;DHT22;15182;48.174;11.562;2023-01-28T02:11:10;4.70;97.10
27803;DHT22;15182;48.174;11.562;2023-01-28T02:13:45;4.70;97.10
27803;DHT22;15182;48.174;11.562;2023-01-28T02:16:17;4.70;97.00
27803;DHT22;15182;48.174;11.562;2023-01-28T02:18:49;4.70;97.00
27803;DHT22;15182;48.174;11.562;2023-01-28T02:22:00;4.70;97.00
27803;DHT22;15182;48.174;11.562;2023-01-28T02:28:08;4.60;97.00
27803;DHT22;15182;48.174;11.562;2023-01-28T02:30:46;4.60;97.10
27803;DHT22;15182;48.174;11.562;2023-01-28T02:33:24;4.60;97.10
27803;DHT22;15182;48.174;11.562;2023-01-28T02:36:05;4.60;97.10
27803;DHT22;15182;48.174;11.562;2023-01-28T02:38:44;4.60;97.20
27803;DHT22;15182;48.174;11.562;2023-01-28T02:41:24;4.60;97.20
27803;DHT22;15182;48.174;11.562;2023-01-28T02:44:00;4.60;97.20
27803;DHT22;15182;48.174;11.562;2023-01-28T02:46:36;4.70;97.20
27803;DHT22;15182;48.174;11.562;2023-01-28T02:49:28;4.70;97.20
27803;DHT22;15182;48.174;11.562;2023-01-28T02:52:17;4.70;97.10
27803;DHT22;15182;48.174;11.562;2023-01-28T02:55:19;4.70;97.20
27803;DHT22;15182;48.174;11.562;2023-01-28T02:57:59;4.70;97.20
27803;DHT22;15182;48.174;11.562;2023-01-28T03:00:43;4.70;97.20
27803;DHT22;15182;48.174;11.562;2023-01-28T03:03:25;4.70;97.20
27803;DHT22;15182;48.174;11.562;2023-01-28T03:06:04;4.70;97.20
27803;DHT22;15182;48.174;11.562;2023-01-28T03:08:45;4.70;97.20
27803;DHT22;15182;48.174;11.562;2023-01-28T03:11:40;4.70;97.20
27803;DHT22;15182;48.174;11.562;2023-01-28T03:14:31;4.70;97.60
27803;DHT22;15182;48.174;11.562;2023-01-28T03:17:26;4.70;97.20
27803;DHT22;15182;48.174;11.562;2023-01-28T03:20:21;4.70;97.20
27803;DHT22;15182;48.174;11.562;2023-01-28T03:23:26;4.70;97.20
27803;DHT22;15182;48.174;11.562;2023-01-28T03:26:22;4.70;97.20
27803;DHT22;15182;48.174;11.562;2023-01-28T03:29:16;4.60;97.20
27803;DHT22;15182;48.174;11.562;2023-01-28T03:32:09;4.60;97.20
27803;DHT22;15182;48.174;11.562;2023-01-28T03:35:01;4.60;97.20
27803;DHT22;15182;48.174;11.562;2023-01-28T03:37:50;4.70;97.20
27803;DHT22;15182;48.174;11.562;2023-01-28T03:40:24;4.60;97.20
27803;DHT22;15182;48.174;11.562;2023-01-28T03:42:55;4.60;97.20
27803;DHT22;15182;48.174;11.562;2023-01-28T03:45:34;4.60;97.20
27803;DHT22;15182;48.174;11.562;2023-01-28T03:48:07;4.60;97.30
27803;DHT22;15182;48.174;11.562;2023-01-28T03:50:39;4.60;97.20
27803;DHT22;15182;48.174;11.562;2023-01-28T03:53:11;4.60;97.20
27803;DHT22;15182;48.174;11.562;2023-01-28T03:55:48;4.60;97.20
27803;DHT22;15182;48.174;11.562;2023-01-28T03:58:22;4.60;97.20
27803;DHT22;15182;48.174;11.562;2023-01-28T04:01:07;4.60;97.20
27803;DHT22;15182;48.174;11.562;2023-01-28T04:03:39;4.60;97.20
27803;DHT22;15182;48.174;11.562;2023-01-28T04:06:16;4.60;97.10
27803;DHT22;15182;48.174;11.562;2023-01-28T04:09:27;4.60;97.10
27803;DHT22;15182;48.174;11.562;2023-01-28T04:12:20;4.60;97.10
27803;DHT22;15182;48.174;11.562;2023-01-28T04:14:53;4.60;97.40
27803;DHT22;15182;48.174;11.562;2023-01-28T04:17:30;4.60;97.10
27803;DHT22;15182;48.174;11.562;2023-01-28T04:20:02;4.60;97.10
27803;DHT22;15182;48.174;11.562;2023-01-28T04:22:36;4.60;97.00
27803;DHT22;15182;48.174;11.562;2023-01-28T04:25:10;4.60;97.00
27803;DHT22;15182;48.174;11.562;2023-01-28T04:27:41;4.60;97.00
27803;DHT22;15182;48.174;11.562;2023-01-28T04:30:19;4.60;97.00
27803;DHT22;15182;48.174;11.562;2023-01-28T04:33:06;4.60;96.90
27803;DHT22;15182;48.174;11.562;2023-01-28T04:35:53;4.60;97.00
27803;DHT22;15182;48.174;11.562;2023-01-28T04:38:38;4.60;97.00
27803;DHT22;15182;48.174;11.562;2023-01-28T04:41:22;4.60;96.90
27803;DHT22;15182;48.174;11.562;2023-01-28T04:43:53;4.60;97.00
27803;DHT22;15182;48.174;11.562;2023-01-28T04:46:47;4.60;97.00
27803;DHT22;15182;48.174;11.562;2023-01-28T04:49:39;4.60;96.90
27803;DHT22;15182;48.174;11.562;2023-01-28T04:52:15;4.60;96.90
27803;DHT22;15182;48.174;11.562;2023-01-28T04:54:58;4.60;96.90
27803;DHT22;15182;48.174;11.562;2023-01-28T04:57:33;4.60;96.90
27803;DHT22;15182;48.174;11.562;2023-01-28T05:00:08;4.50;96.90
27803;DHT22;15182;48.174;11.562;2023-01-28T05:02:41;4.50;96.90
27803;DHT22;15182;48.174;11.562;2023-01-28T05:05:12;4.60;97.00
27803;DHT22;15182;48.174;11.562;2023-01-28T05:07:58;4.60;97.00
27803;DHT22;15182;48.174;11.562;2023-01-28T05:10:31;4.50;97.00
27803;DHT22;15182;48.174;11.562;2023-01-28T05:13:03;4.50;97.00
27803;DHT22;15182;48.174;11.562;2023-01-28T05:15:36;4.60;97.00
27803;DHT22;15182;48.174;11.562;2023-01-28T05:18:07;4.60;97.00
27803;DHT22;15182;48.174;11.562;2023-01-28T05:20:44;4.60;97.00
27803;DHT22;15182;48.174;11.562;2023-01-28T05:23:16;4.60;96.90
27803;DHT22;15182;48.174;11.562;2023-01-28T05:25:53;4.60;96.90
27803;DHT22;15182;48.174;11.562;2023-01-28T05:28:25;4.60;96.90
27803;DHT22;15182;48.174;11.562;2023-01-28T05:31:02;4.60;96.90
27803;DHT22;15182;48.174;11.562;2023-01-28T05:33:35;4.50;96.90
27803;DHT22;15182;48.174;11.562;2023-01-28T05:36:10;4.50;97.00
27803;DHT22;15182;48.174;11.562;2023-01-28T05:38:44;4.50;97.00
27803;DHT22;15182;48.174;11.562;2023-01-28T05:41:16;4.60;97.00
27803;DHT22;15182;48.174;11.562;2023-01-28T05:43:54;4.50;96.90
27803;DHT22;15182;48.174;11.562;2023-01-28T05:46:38;4.50;96.90
27803;DHT22;15182;48.174;11.562;2023-01-28T05:49:32;4.50;96.90
27803;DHT22;15182;48.174;11.562;2023-01-28T05:52:28;4.50;97.00
27803;DHT22;15182;48.174;11.562;2023-01-28T05:55:00;4.50;96.90
27803;DHT22;15182;48.174;11.562;2023-01-28T05:57:33;4.50;96.90
27803;DHT22;15182;48.174;11.562;2023-01-28T06:00:07;4.60;97.00
27803;DHT22;15182;48.174;11.562;2023-01-28T06:02:43;4.50;97.00
27803;DHT22;15182;48.174;11.562;2023-01-28T06:05:18;4.50;97.00
27803;DHT22;15182;48.174;11.562;2023-01-28T06:07:50;4.60;97.00
27803;DHT22;15182;48.174;11.562;2023-01-28T06:10:24;4.60;97.00
27803;DHT22;15182;48.174;11.562;2023-01-28T06:12:57;4.60;97.00
27803;DHT22;15182;48.174;11.562;2023-01-28T06:15:41;4.60;97.00
27803;DHT22;15182;48.174;11.562;2023-01-28T06:18:27;4.60;97.00
27803;DHT22;15182;48.174;11.562;2023-01-28T06:21:00;4.60;97.00
27803;DHT22;15182;48.174;11.562;2023-01-28T06:23:31;4.70;97.00
27803;DHT22;15182;48.174;11.562;2023-01-28T06:26:05;4.70;96.90
27803;DHT22;15182;48.174;11.562;2023-01-28T06:28:39;4.70;96.90
27803;DHT22;15182;48.174;11.562;2023-01-28T06:31:11;4.70;96.90
27803;DHT22;15182;48.174;11.562;2023-01-28T06:33:42;4.70;96.90
27803;DHT22;15182;48.174;11.562;2023-01-28T06:36:13;4.70;96.90
27803;DHT22;15182;48.174;11.562;2023-01-28T06:38:45;4.70;96.90
27803;DHT22;15182;48.174;11.562;2023-01-28T06:41:16;4.60;96.80
27803;DHT22;15182;48.174;11.562;2023-01-28T06:43:49;4.60;96.80
27803;DHT22;15182;48.174;11.562;2023-01-28T06:46:22;4.70;96.90
27803;DHT22;15182;48.174;11.562;2023-01-28T06:48:53;4.60;96.90
27803;DHT22;15182;48.174;11.562;2023-01-28T06:51:26;4.60;96.90
27803;DHT22;15182;48.174;11.562;2023-01-28T06:53:58;4.60;97.00
27803;DHT22;15182;48.174;11.562;2023-01-28T06:56:31;4.60;97.00
27803;DHT22;15182;48.174;11.562;2023-01-28T06:59:04;4.60;97.00
27803;DHT22;15182;48.174;11.562;2023-01-28T07:01:35;4.60;97.00
27803;DHT22;15182;48.174;11.562;2023-01-28T07:04:07;4.60;97.00
27803;DHT22;15182;48.174;11.562;2023-01-28T07:06:38;4.70;97.10
27803;DHT22;15182;48.174;11.562;2023-01-28T07:09:10;4.70;97.00
27803;DHT22;15182;48.174;11.562;2023-01-28T07:11:41;4.70;97.00
27803;DHT22;15182;48.174;11.562;2023-01-28T07:14:14;4.70;96.90
27803;DHT22;15182;48.174;11.562;2023-01-28T07:16:46;4.70;97.00
27803;DHT22;15182;48.174;11.562;2023-01-28T07:19:17;4.70;97.00
27803;DHT22;15182;48.174;11.562;2023-01-28T07:21:48;4.70;97.00
27803;DHT22;15182;48.174;11.562;2023-01-28T07:24:19;4.60;97.00
27803;DHT22;15182;48.174;11.562;2023-01-28T07:26:51;4.60;97.00
27803;DHT22;15182;48.174;11.562;2023-01-28T07:29:24;4.60;97.00
27803;DHT22;15182;48.174;11.562;2023-01-28T07:31:55;4.60;97.00
27803;DHT22;15182;48.174;11.562;2023-01-28T07:34:27;4.60;97.00
27803;DHT22;15182;48.174;11.562;2023-01-28T07:36:58;4.60;97.10
27803;DHT22;15182;48.174;11.562;2023-01-28T07:39:30;4.60;97.10
27803;DHT22;15182;48.174;11.562;2023-01-28T07:42:01;4.60;97.10
27803;DHT22;15182;48.174;11.562;2023-01-28T07:44:39;4.60;97.10
27803;DHT22;15182;48.174;11.562;2023-01-28T07:47:10;4.70;97.20
27803;DHT22;15182;48.174;11.562;2023-01-28T07:49:44;4.70;97.20
27803;DHT22;15182;48.174;11.562;2023-01-28T07:52:15;4.70;97.20
27803;DHT22;15182;48.174;11.562;2023-01-28T07:54:46;4.70;97.10
27803;DHT22;15182;48.174;11.562;2023-01-28T07:57:18;4.70;97.10
27803;DHT22;15182;48.174;11.562;2023-01-28T07:59:52;4.60;97.10
27803;DHT22;15182;48.174;11.562;2023-01-28T08:02:24;4.70;97.20
27803;DHT22;15182;48.174;11.562;2023-01-28T08:04:56;4.70;97.20
27803;DHT22;15182;48.174;11.562;2023-01-28T08:07:28;4.70;97.20
27803;DHT22;15182;48.174;11.562;2023-01-28T08:10:00;4.60;97.20
27803;DHT22;15182;48.174;11.562;2023-01-28T08:12:31;4.70;97.20
27803;DHT22;15182;48.174;11.562;2023-01-28T08:15:03;4.70;97.20
27803;DHT22;15182;48.174;11.562;2023-01-28T08:17:35;4.70;97.20
27803;DHT22;15182;48.174;11.562;2023-01-28T08:20:07;4.70;97.30
27803;DHT22;15182;48.174;11.562;2023-01-28T08:22:38;4.70;97.30
27803;DHT22;15182;48.174;11.562;2023-01-28T08:25:09;4.70;97.30
27803;DHT22;15182;48.174;11.562;2023-01-28T08:27:42;4.70;97.30
27803;DHT22;15182;48.174;11.562;2023-01-28T08:30:15;4.70;97.30
27803;DHT22;15182;48.174;11.562;2023-01-28T08:32:48;4.70;97.30
27803;DHT22;15182;48.174;11.562;2023-01-28T08:35:20;4.70;97.30
27803;DHT22;15182;48.174;11.562;2023-01-28T08:37:54;4.70;97.40
27803;DHT22;15182;48.174;11.562;2023-01-28T08:40:27;4.70;97.30
27803;DHT22;15182;48.174;11.562;2023-01-28T08:42:59;4.70;97.40
27803;DHT22;15182;48.174;11.562;2023-01-28T08:45:32;4.70;97.40
27803;DHT22;15182;48.174;11.562;2023-01-28T08:48:06;4.80;97.40
27803;DHT22;15182;48.174;11.562;2023-01-28T08:50:39;4.80;97.40
27803;DHT22;15182;48.174;11.562;2023-01-28T08:53:13;4.80;97.40
27803;DHT22;15182;48.174;11.562;2023-01-28T08:55:47;4.80;97.30
27803;DHT22;15182;48.174;11.562;2023-01-28T08:58:19;4.80;97.30
27803;DHT22;15182;48.174;11.562;2023-01-28T09:00:52;4.80;97.30
27803;DHT22;15182;48.174;11.562;2023-01-28T09:03:24;4.90;97.30
27803;DHT22;15182;48.174;11.562;2023-01-28T09:06:01;4.90;97.30
27803;DHT22;15182;48.174;11.562;2023-01-28T09:08:32;4.90;97.30
27803;DHT22;15182;48.174;11.562;2023-01-28T09:11:03;4.90;97.20
27803;DHT22;15182;48.174;11.562;2023-01-28T09:13:36;5.00;97.20
27803;DHT22;15182;48.174;11.562;2023-01-28T09:16:10;4.90;97.10
27803;DHT22;15182;48.174;11.562;2023-01-28T09:18:41;5.00;97.20
27803;DHT22;15182;48.174;11.562;2023-01-28T09:21:13;5.00;97.20
27803;DHT22;15182;48.174;11.562;2023-01-28T09:23:44;5.00;97.20
27803;DHT22;15182;48.174;11.562;2023-01-28T09:26:16;5.00;97.20
27803;DHT22;15182;48.174;11.562;2023-01-28T09:28:48;5.00;97.20
27803;DHT22;15182;48.174;11.562;2023-01-28T09:31:21;5.00;97.20
27803;DHT22;15182;48.174;11.562;2023-01-28T09:33:54;5.00;97.20
27803;DHT22;15182;48.174;11.562;2023-01-28T09:36:26;5.10;97.20
27803;DHT22;15182;48.174;11.562;2023-01-28T09:38:59;5.10;97.10
27803;DHT22;15182;48.174;11.562;2023-01-28T09:41:45;5.10;97.20
27803;DHT22;15182;48.174;11.562;2023-01-28T09:44:30;5.20;97.20
27803;DHT22;15182;48.174;11.562;2023-01-28T09:47:11;5.20;97.10
27803;DHT22;15182;48.174;11.562;2023-01-28T09:49:49;5.20;97.00
27803;DHT22;15182;48.174;11.562;2023-01-28T09:52:25;5.20;97.00
27803;DHT22;15182;48.174;11.562;2023-01-28T09:55:02;5.20;97.00
27803;DHT22;15182;48.174;11.562;2023-01-28T09:57:39;5.20;96.80
27803;DHT22;15182;48.174;11.562;2023-01-28T10:00:16;5.30;96.90
27803;DHT22;15182;48.174;11.562;2023-01-28T10:05:55;5.30;97.00
27803;DHT22;15182;48.174;11.562;2023-01-28T10:08:49;5.30;96.90
27803;DHT22;15182;48.174;11.562;2023-01-28T10:11:45;5.40;96.80
27803;DHT22;15182;48.174;11.562;2023-01-28T10:14:30;5.40;96.70
27803;DHT22;15182;48.174;11.562;2023-01-28T10:17:12;5.40;96.70
27803;DHT22;15182;48.174;11.562;2023-01-28T10:19:50;5.50;96.70
27803;DHT22;15182;48.174;11.562;2023-01-28T10:22:27;5.50;96.70
27803;DHT22;15182;48.174;11.562;2023-01-28T10:25:04;5.50;96.70
27803;DHT22;15182;48.174;11.562;2023-01-28T10:27:43;5.50;96.60
27803;DHT22;15182;48.174;11.562;2023-01-28T10:30:20;5.60;96.60
27803;DHT22;15182;48.174;11.562;2023-01-28T10:32:58;5.60;96.50
27803;DHT22;15182;48.174;11.562;2023-01-28T10:35:34;5.60;96.40
27803;DHT22;15182;48.174;11.562;2023-01-28T10:38:12;5.70;96.40
27803;DHT22;15182;48.174;11.562;2023-01-28T10:40:45;5.70;96.30
27803;DHT22;15182;48.174;11.562;2023-01-28T10:43:18;5.70;96.30
27803;DHT22;15182;48.174;11.562;2023-01-28T10:45:56;5.70;96.20
27803;DHT22;15182;48.174;11.562;2023-01-28T10:48:31;5.70;96.20
27803;DHT22;15182;48.174;11.562;2023-01-28T10:51:06;5.70;96.20
27803;DHT22;15182;48.174;11.562;2023-01-28T10:53:38;5.70;96.30
27803;DHT22;15182;48.174;11.562;2023-01-28T10:56:12;5.80;96.30
27803;DHT22;15182;48.174;11.562;2023-01-28T10:58:56;5.80;96.30
27803;DHT22;15182;48.174;11.562;2023-01-28T11:01:41;5.80;96.10
27803;DHT22;15182;48.174;11.562;2023-01-28T11:04:21;5.90;96.10
27803;DHT22;15182;48.174;11.562;2023-01-28T11:06:56;5.90;96.10
27803;DHT22;15182;48.174;11.562;2023-01-28T11:09:29;5.90;96.10
27803;DHT22;15182;48.174;11.562;2023-01-28T11:12:10;6.00;96.10
27803;DHT22;15182;48.174;11.562;2023-01-28T11:14:53;6.10;95.90
27803;DHT22;15182;48.174;11.562;2023-01-28T11:17:28;6.10;95.80
27803;DHT22;15182;48.174;11.562;2023-01-28T11:20:08;6.20;95.90
27803;DHT22;15182;48.174;11.562;2023-01-28T11:22:42;6.30;95.80
27803;DHT22;15182;48.174;11.562;2023-01-28T11:25:21;6.30;95.50
27803;DHT22;15182;48.174;11.562;2023-01-28T11:27:55;6.40;95.40
27803;DHT22;15182;48.174;11.562;2023-01-28T11:30:28;6.30;95.40
27803;DHT22;15182;48.174;11.562;2023-01-28T11:33:12;6.40;95.40
27803;DHT22;15182;48.174;11.562;2023-01-28T11:35:54;6.40;95.30
27803;DHT22;15182;48.174;11.562;2023-01-28T11:38:27;6.40;95.20
27803;DHT22;15182;48.174;11.562;2023-01-28T11:40:59;6.40;95.20
27803;DHT22;15182;48.174;11.562;2023-01-28T11:43:31;6.40;95.10
27803;DHT22;15182;48.174;11.562;2023-01-28T11:46:11;6.40;95.00
27803;DHT22;15182;48.174;11.562;2023-01-28T11:48:57;6.40;94.90
27803;DHT22;15182;48.174;11.562;2023-01-28T11:51:38;6.40;95.00
27803;DHT22;15182;48.174;11.562;2023-01-28T11:54:20;6.40;95.10
27803;DHT22;15182;48.174;11.562;2023-01-28T11:57:07;6.40;95.10
27803;DHT22;15182;48.174;11.562;2023-01-28T11:59:55;6.40;95.00
27803;DHT22;15182;48.174;11.562;2023-01-28T12:02:45;6.50;95.10
27803;DHT22;15182;48.174;11.562;2023-01-28T12:05:31;6.50;95.00
27803;DHT22;15182;48.174;11.562;2023-01-28T12:08:11;6.50;94.90
27803;DHT22;15182;48.174;11.562;2023-01-28T12:11:03;6.50;95.00
27803;DHT22;15182;48.174;11.562;2023-01-28T12:13:50;6.50;94.80
27803;DHT22;15182;48.174;11.562;2023-01-28T12:19:46;6.40;94.60
27803;DHT22;15182;48.174;11.562;2023-01-28T12:25:33;6.40;94.90
27803;DHT22;15182;48.174;11.562;2023-01-28T12:28:31;6.30;94.90
27803;DHT22;15182;48.174;11.562;2023-01-28T12:31:18;6.30;95.00
27803;DHT22;15182;48.174;11.562;2023-01-28T12:34:14;6.30;95.00
27803;DHT22;15182;48.174;11.562;2023-01-28T12:37:00;6.20;95.00
27803;DHT22;15182;48.174;11.562;2023-01-28T12:39:41;6.20;95.10
27803;DHT22;15182;48.174;11.562;2023-01-28T12:42:19;6.20;95.10
27803;DHT22;15182;48.174;11.562;2023-01-28T12:45:00;6.20;95.10
27803;DHT22;15182;48.174;11.562;2023-01-28T12:47:37;6.10;95.10
27803;DHT22;15182;48.174;11.562;2023-01-28T12:50:16;6.10;95.10
27803;DHT22;15182;48.174;11.562;2023-01-28T12:52:54;6.10;95.10
27803;DHT22;15182;48.174;11.562;2023-01-28T12:55:37;6.10;95.10
27803;DHT22;15182;48.174;11.562;2023-01-28T12:58:18;6.10;95.10
27803;DHT22;15182;48.174;11.562;2023-01-28T13:00:55;6.00;95.00
27803;DHT22;15182;48.174;11.562;2023-01-28T13:03:36;6.00;95.00
27803;DHT22;15182;48.174;11.562;2023-01-28T13:06:16;6.00;94.90
27803;DHT22;15182;48.174;11.562;2023-01-28T13:08:55;6.00;95.00
27803;DHT22;15182;48.174;11.562;2023-01-28T13:11:34;6.00;95.00
27803;DHT22;15182;48.174;11.562;2023-01-28T13:14:05;5.90;95.00
27803;DHT22;15182;48.174;11.562;2023-01-28T13:16:39;5.90;95.10
27803;DHT22;15182;48.174;11.562;2023-01-28T13:19:21;5.90;95.00
27803;DHT22;15182;48.174;11.562;2023-01-28T13:21:53;6.00;95.40
27803;DHT22;15182;48.174;11.562;2023-01-28T13:24:31;6.00;95.20
27803;DHT22;15182;48.174;11.562;2023-01-28T13:27:20;6.00;95.00
27803;DHT22;15182;48.174;11.562;2023-01-28T13:30:03;6.00;94.80
27803;DHT22;15182;48.174;11.562;2023-01-28T13:32:55;6.00;94.80
27803;DHT22;15182;48.174;11.562;2023-01-28T13:35:33;6.00;94.80
27803;DHT22;15182;48.174;11.562;2023-01-28T13:38:12;6.00;94.80
27803;DHT22;15182;48.174;11.562;2023-01-28T13:40:55;6.10;94.80
27803;DHT22;15182;48.174;11.562;2023-01-28T13:43:35;6.00;94.80
27803;DHT22;15182;48.174;11.562;2023-01-28T13:46:09;6.00;94.80
27803;DHT22;15182;48.174;11.562;2023-01-28T13:48:47;6.00;94.90
27803;DHT22;15182;48.174;11.562;2023-01-28T13:51:24;6.00;94.90
27803;DHT22;15182;48.174;11.562;2023-01-28T13:54:01;6.00;94.80
27803;DHT22;15182;48.174;11.562;2023-01-28T13:56:40;6.00;94.80
27803;DHT22;15182;48.174;11.562;2023-01-28T13:59:38;6.00;94.90
27803;DHT22;15182;48.174;11.562;2023-01-28T14:05:54;6.00;94.90
27803;DHT22;15182;48.174;11.562;2023-01-28T14:09:07;6.00;94.80
27803;DHT22;15182;48.174;11.562;2023-01-28T14:12:02;6.00;95.00
27803;DHT22;15182;48.174;11.562;2023-01-28T14:15:02;6.00;95.10
27803;DHT22;15182;48.174;11.562;2023-01-28T14:17:44;6.00;95.10
27803;DHT22;15182;48.174;11.562;2023-01-28T14:20:20;6.00;95.10
27803;DHT22;15182;48.174;11.562;2023-01-28T14:23:00;6.00;95.20
27803;DHT22;15182;48.174;11.562;2023-01-28T14:25:35;6.00;95.10
27803;DHT22;15182;48.174;11.562;2023-01-28T14:28:18;6.00;95.10
27803;DHT22;15182;48.174;11.562;2023-01-28T14:30:56;6.00;95.20
27803;DHT22;15182;48.174;11.562;2023-01-28T14:33:32;6.10;95.20
27803;DHT22;15182;48.174;11.562;2023-01-28T14:36:08;6.10;95.20
27803;DHT22;15182;48.174;11.562;2023-01-28T14:38:43;6.10;95.10
27803;DHT22;15182;48.174;11.562;2023-01-28T14:41:21;6.10;95.10
27803;DHT22;15182;48.174;11.562;2023-01-28T14:43:56;6.10;95.00
27803;DHT22;15182;48.174;11.562;2023-01-28T14:46:34;6.10;95.10
27803;DHT22;15182;48.174;11.562;2023-01-28T14:49:23;6.10;95.10
27803;DHT22;15182;48.174;11.562;2023-01-28T14:52:08;6.10;95.00
27803;DHT22;15182;48.174;11.562;2023-01-28T14:54:53;6.10;95.00
27803;DHT22;15182;48.174;11.562;2023-01-28T14:57:37;6.10;95.00
27803;DHT22;15182;48.174;11.562;2023-01-28T15:00:18;6.10;95.00
27803;DHT22;15182;48.174;11.562;2023-01-28T15:02:52;6.10;95.00
27803;DHT22;15182;48.174;11.562;2023-01-28T15:05:27;6.10;95.10
27803;DHT22;15182;48.174;11.562;2023-01-28T15:07:59;6.10;95.10
27803;DHT22;15182;48.174;11.562;2023-01-28T15:10:34;6.10;95.10
27803;DHT22;15182;48.174;11.562;2023-01-28T15:13:08;6.10;95.00
27803;DHT22;15182;48.174;11.562;2023-01-28T15:15:45;6.10;95.10
27803;DHT22;15182;48.174;11.562;2023-01-28T15:18:27;6.10;95.10
27803;DHT22;15182;48.174;11.562;2023-01-28T15:21:01;6.10;95.00
27803;DHT22;15182;48.174;11.562;2023-01-28T15:23:34;6.10;95.00
27803;DHT22;15182;48.174;11.562;2023-01-28T15:26:13;6.10;94.90
27803;DHT22;15182;48.174;11.562;2023-01-28T15:28:48;6.10;94.90
27803;DHT22;15182;48.174;11.562;2023-01-28T15:31:23;6.10;95.30
27803;DHT22;15182;48.174;11.562;2023-01-28T15:33:56;6.10;94.90
27803;DHT22;15182;48.174;11.562;2023-01-28T15:36:31;6.10;94.90
27803;DHT22;15182;48.174;11.562;2023-01-28T15:39:03;6.10;94.80
27803;DHT22;15182;48.174;11.562;2023-01-28T15:41:45;6.10;94.90
27803;DHT22;15182;48.174;11.562;2023-01-28T15:44:21;6.10;95.30
27803;DHT22;15182;48.174;11.562;2023-01-28T15:46:56;6.10;95.30
27803;DHT22;15182;48.174;11.562;2023-01-28T15:49:34;6.10;94.90
27803;DHT22;15182;48.174;11.562;2023-01-28T15:52:17;6.10;95.00
27803;DHT22;15182;48.174;11.562;2023-01-28T15:54:49;6.10;95.00
27803;DHT22;15182;48.174;11.562;2023-01-28T15:57:24;6.10;95.00
27803;DHT22;15182;48.174;11.562;2023-01-28T16:00:11;6.10;95.10
27803;DHT22;15182;48.174;11.562;2023-01-28T16:02:48;6.10;95.10
27803;DHT22;15182;48.174;11.562;2023-01-28T16:05:30;6.10;95.10
27803;DHT22;15182;48.174;11.562;2023-01-28T16:08:06;6.10;95.10
27803;DHT22;15182;48.174;11.562;2023-01-28T16:10:39;6.10;95.20
27803;DHT22;15182;48.174;11.562;2023-01-28T16:13:18;6.10;95.20
27803;DHT22;15182;48.174;11.562;2023-01-28T16:15:53;6.00;95.20
27803;DHT22;15182;48.174;11.562;2023-01-28T16:18:34;6.00;95.30
27803;DHT22;15182;48.174;11.562;2023-01-28T16:21:10;6.00;95.40
27803;DHT22;15182;48.174;11.562;2023-01-28T16:23:52;6.00;95.50
27803;DHT22;15182;48.174;11.562;2023-01-28T16:26:32;6.00;95.50
27803;DHT22;15182;48.174;11.562;2023-01-28T16:29:14;6.00;95.60
27803;DHT22;15182;48.174;11.562;2023-01-28T16:31:45;6.00;95.60
27803;DHT22;15182;48.174;11.562;2023-01-28T16:34:16;6.00;95.60
27803;DHT22;15182;48.174;11.562;2023-01-28T16:36:48;6.00;95.60
27803;DHT22;15182;48.174;11.562;2023-01-28T16:39:19;6.00;95.60
27803;DHT22;15182;48.174;11.562;2023-01-28T16:41:50;5.90;95.60
27803;DHT22;15182;48.174;11.562;2023-01-28T16:44:25;5.90;95.60
27803;DHT22;15182;48.174;11.562;2023-01-28T16:46:56;5.90;95.60
27803;DHT22;15182;48.174;11.562;2023-01-28T16:49:27;5.90;95.70